Time;durP1;ratioP1;P1;durP2;ratioP2;P2;SDS_P1;SDS_P2;PMS_P1;PMS_P2;Temp;Humidity;BMP_temperature;BMP_pressure;BME280_temperature;BME280_humidity;BME280_pressure;Samples;Min_cycle;Max_cycle;Signal;HPM_P1;HPM_P2
2021/10/23 00:01:31;;;;;;;10.70;5.28;;;6.60;99.90;;;;;;5088499;28;20036;-43
2021/10/23 00:03:56;;;;;;;7.97;5.53;;;6.60;99.90;;;;;;5087172;28;20028;-43
2021/10/23 00:06:22;;;;;;;12.70;5.40;;;6.60;99.90;;;;;;5088363;28;20020;-43
2021/10/23 00:08:47;;;;;;;9.82;5.15;;;6.70;99.90;;;;;;5087955;28;20109;-43
2021/10/23 00:11:13;;;;;;;10.55;5.25;;;6.70;99.90;;;;;;5087820;28;20470;-43
2021/10/23 00:13:39;;;;;;;8.45;5.05;;;6.70;99.90;;;;;;5087510;28;20030;-43
2021/10/23 00:16:04;;;;;;;8.77;5.22;;;6.80;99.90;;;;;;5088193;28;20467;-43
2021/10/23 00:18:30;;;;;;;6.97;4.65;;;6.70;99.90;;;;;;5086984;28;20390;-43
2021/10/23 00:20:55;;;;;;;9.95;5.40;;;6.80;99.90;;;;;;5087800;28;20077;-43
2021/10/23 00:23:21;;;;;;;5.75;4.65;;;6.80;99.90;;;;;;5088044;28;20103;-43
2021/10/23 00:25:46;;;;;;;9.15;5.40;;;6.90;99.90;;;;;;5087057;28;20673;-43
2021/10/23 00:28:12;;;;;;;7.22;4.80;;;6.90;99.90;;;;;;5087876;28;20051;-43
2021/10/23 00:30:37;;;;;;;8.65;4.53;;;6.90;99.90;;;;;;5087706;28;20020;-43
2021/10/23 00:33:03;;;;;;;7.85;4.35;;;7.00;99.90;;;;;;5086685;28;20063;-43
2021/10/23 00:35:30;;;;;;;6.60;4.55;;;7.00;99.90;;;;;;5087720;28;20753;-44
2021/10/23 00:37:55;;;;;;;10.57;4.80;;;7.00;99.90;;;;;;5087641;28;20024;-43
2021/10/23 00:40:21;;;;;;;8.77;4.70;;;7.00;99.90;;;;;;5087147;28;20031;-43
2021/10/23 00:42:47;;;;;;;8.63;4.25;;;7.00;99.90;;;;;;5087777;28;20031;-43
2021/10/23 00:45:13;;;;;;;8.57;4.70;;;7.00;99.90;;;;;;5087433;28;20027;-43
2021/10/23 00:47:38;;;;;;;9.73;4.60;;;7.00;99.90;;;;;;5086464;28;20424;-43
2021/10/23 00:50:05;;;;;;;8.70;4.80;;;7.00;99.90;;;;;;5087693;28;20020;-43
2021/10/23 00:52:30;;;;;;;8.07;4.63;;;7.00;99.90;;;;;;5087390;28;20038;-43
2021/10/23 00:54:56;;;;;;;7.90;4.47;;;6.90;99.90;;;;;;5086557;28;20040;-43
2021/10/23 00:57:22;;;;;;;9.38;4.72;;;6.90;99.90;;;;;;5087581;28;20047;-44
2021/10/23 00:59:47;;;;;;;9.00;4.60;;;6.90;99.90;;;;;;5087024;28;20206;-43
2021/10/23 01:02:13;;;;;;;10.38;4.40;;;6.80;99.90;;;;;;5086891;28;20020;-43
2021/10/23 01:04:42;;;;;;;10.75;4.50;;;6.80;99.90;;;;;;5086737;28;20432;-44
2021/10/23 01:07:09;;;;;;;10.60;4.47;;;6.80;99.90;;;;;;5076045;28;20087;-43
2021/10/23 01:09:37;;;;;;;7.38;4.40;;;6.80;99.90;;;;;;5087161;28;20024;-44
2021/10/23 01:12:09;;;;;;;8.13;4.60;;;6.70;99.90;;;;;;5087123;28;20700;-44
2021/10/23 01:14:35;;;;;;;8.00;4.50;;;6.70;99.90;;;;;;5086670;28;20115;-43
2021/10/23 01:17:00;;;;;;;7.03;4.50;;;6.70;99.90;;;;;;5083479;28;20471;-44
2021/10/23 01:19:26;;;;;;;8.95;4.60;;;6.60;99.90;;;;;;5087366;28;20039;-43
2021/10/23 01:21:52;;;;;;;6.00;4.13;;;6.60;99.90;;;;;;5086421;28;20020;-43
2021/10/23 01:24:18;;;;;;;6.78;4.28;;;6.60;99.90;;;;;;5087663;28;20035;-43
2021/10/23 01:26:44;;;;;;;10.60;4.57;;;6.50;99.90;;;;;;5086280;28;20024;-43
2021/10/23 01:29:13;;;;;;;8.20;4.00;;;6.40;99.90;;;;;;5086918;28;20027;-43
2021/10/23 01:31:40;;;;;;;6.97;4.22;;;6.40;99.90;;;;;;5086805;28;20041;-44
2021/10/23 01:34:16;;;;;;;9.82;4.72;;;6.40;99.90;;;;;;5087528;28;20095;-43
2021/10/23 01:36:48;;;;;;;5.97;4.25;;;6.40;99.90;;;;;;5085769;28;20026;-43
2021/10/23 01:39:14;;;;;;;7.57;4.78;;;6.30;99.90;;;;;;5087494;28;20035;-42
2021/10/23 01:41:40;;;;;;;9.90;5.10;;;6.30;99.90;;;;;;5086270;28;20020;-43
2021/10/23 01:44:07;;;;;;;9.18;4.70;;;6.20;99.90;;;;;;5086674;28;20101;-43
2021/10/23 01:46:33;;;;;;;8.35;4.50;;;6.20;99.90;;;;;;5086897;28;20024;-43
2021/10/23 01:48:59;;;;;;;7.75;4.80;;;6.20;99.90;;;;;;5086947;28;20037;-44
2021/10/23 01:51:26;;;;;;;8.85;4.80;;;6.20;99.90;;;;;;5086096;28;20091;-44
2021/10/23 01:53:51;;;;;;;8.68;4.40;;;6.10;99.90;;;;;;5086701;28;20139;-43
2021/10/23 01:56:17;;;;;;;7.78;4.72;;;6.10;99.90;;;;;;5086165;28;20457;-44
2021/10/23 01:58:42;;;;;;;8.07;4.50;;;6.10;99.90;;;;;;5090103;28;20032;-42
2021/10/23 02:01:08;;;;;;;9.60;4.65;;;6.10;99.90;;;;;;5090748;28;20028;-44
2021/10/23 02:03:33;;;;;;;9.25;4.82;;;6.10;99.90;;;;;;5089781;28;20089;-44
2021/10/23 02:05:59;;;;;;;11.10;4.82;;;6.10;99.90;;;;;;5090439;28;20067;-44
2021/10/23 02:08:24;;;;;;;12.02;5.50;;;6.10;99.90;;;;;;5090017;28;20034;-43
2021/10/23 02:10:50;;;;;;;10.73;4.78;;;6.10;99.90;;;;;;5089644;28;20028;-44
2021/10/23 02:13:15;;;;;;;9.45;4.65;;;6.10;99.90;;;;;;5090612;28;20123;-43
2021/10/23 02:15:41;;;;;;;9.35;4.47;;;6.10;99.90;;;;;;5089846;28;20458;-43
2021/10/23 02:18:06;;;;;;;6.80;4.88;;;6.00;99.90;;;;;;5089695;28;20032;-44
2021/10/23 02:20:34;;;;;;;5.70;4.50;;;6.00;99.90;;;;;;5089949;28;20028;-44
2021/10/23 02:23:00;;;;;;;7.13;4.78;;;6.00;99.90;;;;;;5089801;28;20071;-43
2021/10/23 02:25:26;;;;;;;5.88;4.88;;;6.00;99.90;;;;;;5089449;28;20020;-43
2021/10/23 02:27:52;;;;;;;6.18;4.60;;;5.90;99.90;;;;;;5090045;28;20020;-42
2021/10/23 02:30:17;;;;;;;6.88;4.70;;;6.00;99.90;;;;;;5090219;28;20411;-43
2021/10/23 02:32:43;;;;;;;5.90;4.20;;;5.90;99.90;;;;;;5088823;28;20024;-43
2021/10/23 02:35:09;;;;;;;7.75;4.47;;;5.90;99.90;;;;;;5090202;28;20474;-44
2021/10/23 02:37:35;;;;;;;5.53;3.97;;;6.00;99.90;;;;;;5089483;28;20043;-43
2021/10/23 02:40:01;;;;;;;6.90;4.65;;;6.00;99.90;;;;;;5089060;28;20028;-44
2021/10/23 02:42:26;;;;;;;10.68;4.78;;;6.00;99.90;;;;;;5089826;28;20548;-43
2021/10/23 02:44:52;;;;;;;12.73;5.18;;;6.10;99.90;;;;;;5089508;28;20118;-43
2021/10/23 02:47:17;;;;;;;8.13;4.80;;;6.10;99.90;;;;;;5089473;28;20028;-43
2021/10/23 02:49:43;;;;;;;9.88;5.22;;;6.10;99.90;;;;;;5089009;28;20126;-43
2021/10/23 02:52:08;;;;;;;7.53;4.80;;;6.10;99.90;;;;;;5089816;28;20024;-44
2021/10/23 02:54:34;;;;;;;8.55;4.85;;;6.20;99.90;;;;;;5088204;28;20047;-44
2021/10/23 02:56:59;;;;;;;8.10;4.30;;;6.20;99.90;;;;;;5089486;28;20032;-43
2021/10/23 02:59:25;;;;;;;7.40;4.60;;;6.20;99.90;;;;;;5089238;28;20070;-44
2021/10/23 03:01:50;;;;;;;9.07;4.20;;;6.20;99.90;;;;;;5089061;28;20028;-43
2021/10/23 03:04:16;;;;;;;6.40;4.43;;;6.20;99.90;;;;;;5089386;28;20032;-44
2021/10/23 03:06:44;;;;;;;6.05;4.65;;;6.20;99.90;;;;;;5088354;28;20024;-43
2021/10/23 03:09:14;;;;;;;7.28;4.57;;;6.20;99.90;;;;;;5088871;28;20058;-43
2021/10/23 03:11:41;;;;;;;6.97;4.50;;;6.20;99.90;;;;;;5089006;28;20043;-43
2021/10/23 03:14:07;;;;;;;7.63;4.50;;;6.10;99.90;;;;;;5088636;28;20494;-43
2021/10/23 03:16:33;;;;;;;5.93;4.28;;;6.10;99.90;;;;;;5088904;28;20012;-44
2021/10/23 03:18:59;;;;;;;7.50;4.43;;;6.00;99.90;;;;;;5088700;28;20024;-44
2021/10/23 03:21:24;;;;;;;6.57;4.38;;;6.00;99.90;;;;;;5088327;28;20008;-43
2021/10/23 03:23:50;;;;;;;7.38;4.65;;;5.90;99.90;;;;;;5088693;28;20039;-44
2021/10/23 03:26:16;;;;;;;8.85;4.93;;;5.90;99.90;;;;;;5089141;28;20107;-44
2021/10/23 03:28:42;;;;;;;7.15;4.82;;;6.00;99.90;;;;;;5087982;28;20030;-43
2021/10/23 03:31:08;;;;;;;6.70;4.70;;;6.00;99.90;;;;;;5088798;28;20029;-43
2021/10/23 03:33:33;;;;;;;7.28;5.40;;;6.10;99.90;;;;;;5088734;28;20017;-44
2021/10/23 03:36:02;;;;;;;7.55;5.03;;;6.10;99.90;;;;;;5087777;28;20601;-43
2021/10/23 03:38:27;;;;;;;9.80;4.65;;;6.10;99.90;;;;;;5088601;28;20372;-44
2021/10/23 03:40:53;;;;;;;7.25;4.88;;;6.10;99.90;;;;;;5088417;28;20034;-43
2021/10/23 03:43:18;;;;;;;7.82;5.50;;;6.10;99.90;;;;;;5088267;28;20031;-43
2021/10/23 03:45:44;;;;;;;8.60;5.00;;;6.00;99.90;;;;;;5087966;28;20111;-43
2021/10/23 03:48:10;;;;;;;6.22;4.50;;;6.00;99.90;;;;;;5088734;28;20024;-43
2021/10/23 03:50:35;;;;;;;9.48;4.20;;;6.00;99.90;;;;;;5087385;28;20051;-43
2021/10/23 03:53:01;;;;;;;6.70;4.50;;;5.90;99.90;;;;;;5088011;28;20035;-44
2021/10/23 03:55:27;;;;;;;6.50;4.45;;;5.90;99.90;;;;;;5088159;28;20486;-44
2021/10/23 03:57:52;;;;;;;7.95;4.70;;;5.80;99.90;;;;;;5087558;28;20036;-44
2021/10/23 04:00:18;;;;;;;7.07;5.07;;;5.80;99.90;;;;;;5088389;28;20502;-44
2021/10/23 04:02:45;;;;;;;9.35;4.28;;;5.70;99.90;;;;;;5087540;28;20039;-44
2021/10/23 04:05:10;;;;;;;6.72;4.90;;;5.70;99.90;;;;;;5088034;28;20479;-44
2021/10/23 04:07:36;;;;;;;8.23;4.97;;;5.70;99.90;;;;;;5087626;28;20020;-44
2021/10/23 04:10:03;;;;;;;7.22;4.18;;;5.60;99.90;;;;;;5087955;28;20028;-44
2021/10/23 04:12:30;;;;;;;7.10;4.50;;;5.60;99.90;;;;;;5088062;28;20024;-43
2021/10/23 04:14:55;;;;;;;5.93;4.20;;;5.70;99.90;;;;;;5087932;28;20513;-44
2021/10/23 04:17:20;;;;;;;7.50;4.32;;;5.60;99.90;;;;;;5087364;28;20020;-42
2021/10/23 04:19:46;;;;;;;6.18;4.28;;;5.60;99.90;;;;;;5086925;28;20062;-43
2021/10/23 04:22:12;;;;;;;6.22;4.68;;;5.60;99.90;;;;;;5087968;28;20472;-42
2021/10/23 04:24:38;;;;;;;7.85;5.20;;;5.50;99.90;;;;;;5087115;28;20447;-43
2021/10/23 04:27:04;;;;;;;6.68;4.40;;;5.50;99.90;;;;;;5087889;28;20099;-44
2021/10/23 04:29:29;;;;;;;7.07;5.00;;;5.50;99.90;;;;;;5087862;28;20028;-44
2021/10/23 04:31:55;;;;;;;5.90;4.93;;;5.50;99.90;;;;;;5087106;28;20028;-43
2021/10/23 04:34:20;;;;;;;7.38;4.53;;;5.50;99.90;;;;;;5087961;28;20028;-44
2021/10/23 04:36:46;;;;;;;7.07;5.57;;;5.50;99.90;;;;;;5087016;28;20032;-44
2021/10/23 04:39:13;;;;;;;8.10;5.32;;;5.50;99.90;;;;;;5087316;28;20034;-43
2021/10/23 04:41:38;;;;;;;9.45;5.10;;;5.50;99.90;;;;;;5087382;28;20036;-43
2021/10/23 04:44:06;;;;;;;7.57;4.90;;;5.40;99.90;;;;;;5087654;28;20168;-42
2021/10/23 04:46:32;;;;;;;5.82;4.85;;;5.40;99.90;;;;;;5087228;28;20236;-43
2021/10/23 04:48:57;;;;;;;7.35;5.05;;;5.40;99.90;;;;;;5087354;28;20482;-43
2021/10/23 04:51:23;;;;;;;9.85;5.10;;;5.40;99.90;;;;;;5087301;28;20363;-44
2021/10/23 04:53:50;;;;;;;10.30;5.50;;;5.40;99.90;;;;;;5086116;28;20055;-44
2021/10/23 04:56:16;;;;;;;7.10;4.90;;;5.40;99.90;;;;;;5087685;28;20028;-44
2021/10/23 04:58:42;;;;;;;7.47;5.32;;;5.40;99.90;;;;;;5086886;28;20046;-43
2021/10/23 05:01:07;;;;;;;8.13;5.18;;;5.40;99.90;;;;;;5086961;28;20016;-43
2021/10/23 05:03:33;;;;;;;8.55;5.18;;;5.30;99.90;;;;;;5087210;28;20023;-43
2021/10/23 05:05:58;;;;;;;7.10;5.40;;;5.30;99.90;;;;;;5087139;28;20115;-44
2021/10/23 05:08:24;;;;;;;8.05;5.40;;;5.30;99.90;;;;;;5086566;28;20028;-43
2021/10/23 05:10:50;;;;;;;9.27;5.72;;;5.40;99.90;;;;;;5087531;28;20425;-43
2021/10/23 05:13:17;;;;;;;10.50;5.70;;;5.40;99.90;;;;;;5086757;28;20020;-43
2021/10/23 05:15:42;;;;;;;8.10;5.80;;;5.40;99.90;;;;;;5086910;28;20020;-44
2021/10/23 05:18:08;;;;;;;9.43;5.60;;;5.30;99.90;;;;;;5086996;28;20479;-44
2021/10/23 05:20:34;;;;;;;9.07;6.10;;;5.30;99.90;;;;;;5086375;28;20051;-43
2021/10/23 05:23:00;;;;;;;8.43;6.03;;;5.30;99.90;;;;;;5087088;28;20024;-44
2021/10/23 05:25:25;;;;;;;9.25;6.00;;;5.30;99.90;;;;;;5087109;28;20584;-43
2021/10/23 05:27:51;;;;;;;8.43;5.88;;;5.30;99.90;;;;;;5086624;28;20073;-44
2021/10/23 05:30:16;;;;;;;10.18;6.10;;;5.30;99.90;;;;;;5086772;28;20020;-43
2021/10/23 05:32:42;;;;;;;9.13;5.57;;;5.20;99.90;;;;;;5088800;28;20488;-43
2021/10/23 05:35:08;;;;;;;8.20;5.82;;;5.20;99.90;;;;;;5090442;28;20032;-44
2021/10/23 05:37:34;;;;;;;7.68;6.00;;;5.20;99.90;;;;;;5091242;28;20020;-42
2021/10/23 05:39:59;;;;;;;7.47;5.93;;;5.10;99.90;;;;;;5090924;28;20131;-42
2021/10/23 05:42:25;;;;;;;9.88;6.25;;;5.10;99.90;;;;;;5089972;28;20031;-43
2021/10/23 05:44:51;;;;;;;8.18;6.18;;;5.10;99.90;;;;;;5090463;28;20084;-44
2021/10/23 05:47:16;;;;;;;10.05;6.75;;;5.10;99.90;;;;;;5091506;28;20016;-43
2021/10/23 05:49:42;;;;;;;8.27;6.47;;;5.10;99.90;;;;;;5089452;28;20024;-43
2021/10/23 05:52:08;;;;;;;9.65;7.82;;;5.10;99.90;;;;;;5090849;28;20023;-43
2021/10/23 05:54:39;;;;;;;11.82;7.55;;;5.10;99.90;;;;;;5090251;28;20051;-43
2021/10/23 05:57:06;;;;;;;10.90;8.10;;;5.10;99.90;;;;;;5090365;28;20154;-44
2021/10/23 05:59:31;;;;;;;14.43;8.82;;;5.10;99.90;;;;;;5090182;28;20032;-43
2021/10/23 06:02:10;;;;;;;12.13;7.97;;;5.10;99.90;;;;;;5090295;28;20016;-43
2021/10/23 06:04:36;;;;;;;14.65;8.98;;;5.10;99.90;;;;;;5089909;28;20020;-43
2021/10/23 06:07:04;;;;;;;18.80;8.85;;;5.10;99.90;;;;;;5090500;28;20020;-44
2021/10/23 06:09:30;;;;;;;13.45;8.50;;;5.10;99.90;;;;;;5089644;28;20055;-43
2021/10/23 06:12:00;;;;;;;30.83;9.35;;;5.10;99.90;;;;;;5090107;28;20035;-43
2021/10/23 06:14:25;;;;;;;13.70;8.80;;;5.10;99.90;;;;;;5090076;28;20042;-43
2021/10/23 06:16:51;;;;;;;17.65;9.43;;;5.10;99.90;;;;;;5089304;28;20012;-43
2021/10/23 06:19:16;;;;;;;20.25;8.73;;;5.10;99.90;;;;;;5090505;28;20123;-42
2021/10/23 06:21:42;;;;;;;15.18;9.25;;;5.10;99.90;;;;;;5089436;28;20034;-43
2021/10/23 06:24:07;;;;;;;28.23;8.52;;;5.10;99.90;;;;;;5088676;28;20044;-45
2021/10/23 06:26:33;;;;;;;13.20;7.72;;;5.10;99.90;;;;;;5089708;28;20043;-44
2021/10/23 06:28:58;;;;;;;13.32;8.35;;;5.10;99.90;;;;;;5089757;28;20044;-43
2021/10/23 06:31:24;;;;;;;13.60;7.88;;;5.20;99.90;;;;;;5089061;28;20026;-43
2021/10/23 06:33:49;;;;;;;11.20;7.78;;;5.10;99.90;;;;;;5090088;28;20036;-44
2021/10/23 06:36:15;;;;;;;10.38;7.22;;;5.10;99.90;;;;;;5089992;28;20068;-43
2021/10/23 06:38:40;;;;;;;11.93;7.53;;;5.10;99.90;;;;;;5088805;28;20450;-44
2021/10/23 06:41:06;;;;;;;10.85;7.88;;;5.10;99.90;;;;;;5089941;28;20448;-44
2021/10/23 06:43:32;;;;;;;13.48;6.72;;;5.10;99.90;;;;;;5089092;28;20035;-42
2021/10/23 06:45:57;;;;;;;7.85;6.03;;;5.20;99.90;;;;;;5088755;28;20039;-43
2021/10/23 06:48:23;;;;;;;15.73;5.25;;;5.20;99.90;;;;;;5089434;28;20490;-43
2021/10/23 06:50:48;;;;;;;11.65;5.97;;;5.30;99.90;;;;;;5088986;28;20024;-43
2021/10/23 06:53:14;;;;;;;10.95;4.65;;;5.30;99.90;;;;;;5088921;28;20024;-44
2021/10/23 06:55:39;;;;;;;11.23;4.82;;;5.40;99.90;;;;;;5089532;28;20028;-43
2021/10/23 06:58:05;;;;;;;25.70;6.13;;;5.50;99.90;;;;;;5088904;28;20051;-43
2021/10/23 07:00:31;;;;;;;23.95;6.10;;;5.60;99.90;;;;;;5088652;28;20415;-43
2021/10/23 07:02:59;;;;;;;32.95;6.00;;;5.70;99.90;;;;;;5089273;28;20115;-43
2021/10/23 07:05:27;;;;;;;37.03;6.47;;;5.70;99.90;;;;;;5069201;28;20029;-42
2021/10/23 07:07:52;;;;;;;31.52;6.05;;;5.90;99.90;;;;;;5082771;28;20022;-43
2021/10/23 07:10:18;;;;;;;37.63;6.05;;;6.00;99.90;;;;;;5089455;28;20024;-43
2021/10/23 07:12:43;;;;;;;20.63;5.78;;;6.10;99.90;;;;;;5087891;28;20047;-43
2021/10/23 07:15:09;;;;;;;32.72;6.38;;;6.20;99.90;;;;;;5089257;28;20024;-42
2021/10/23 07:17:35;;;;;;;27.70;5.80;;;6.30;99.90;;;;;;5088127;28;20031;-44
2021/10/23 07:20:02;;;;;;;20.10;6.22;;;6.30;99.90;;;;;;5088462;28;20028;-43
2021/10/23 07:22:28;;;;;;;31.85;6.20;;;6.40;99.90;;;;;;5088660;28;20411;-43
2021/10/23 07:24:53;;;;;;;17.42;5.50;;;6.50;99.90;;;;;;5088917;28;20522;-43
2021/10/23 07:27:19;;;;;;;21.38;6.30;;;6.50;99.90;;;;;;5088399;28;20158;-44
2021/10/23 07:29:44;;;;;;;28.42;6.00;;;6.60;99.90;;;;;;5088350;28;20047;-43
2021/10/23 07:32:10;;;;;;;10.10;5.53;;;6.60;99.90;;;;;;5088902;28;20016;-43
2021/10/23 07:34:35;;;;;;;25.92;5.80;;;6.70;99.90;;;;;;5088361;28;20039;-44
2021/10/23 07:37:01;;;;;;;34.30;6.28;;;6.70;99.90;;;;;;5088610;28;20024;-44
2021/10/23 07:39:27;;;;;;;21.10;6.03;;;6.80;99.90;;;;;;5088733;28;20039;-44
2021/10/23 07:41:53;;;;;;;18.73;5.78;;;6.80;99.90;;;;;;5087878;28;20387;-43
2021/10/23 07:44:18;;;;;;;21.92;5.80;;;6.90;99.90;;;;;;5088438;28;20036;-45
2021/10/23 07:46:45;;;;;;;29.17;6.05;;;6.90;99.90;;;;;;5088386;28;20038;-44
2021/10/23 07:49:11;;;;;;;18.33;5.78;;;7.00;99.90;;;;;;5087707;28;20821;-43
2021/10/23 07:51:37;;;;;;;23.67;6.15;;;7.10;99.90;;;;;;5088399;28;20111;-43
2021/10/23 07:54:04;;;;;;;16.55;6.03;;;7.10;99.90;;;;;;5087474;28;20135;-44
2021/10/23 07:56:30;;;;;;;15.65;6.22;;;7.20;99.90;;;;;;5087258;28;20035;-43
2021/10/23 07:58:55;;;;;;;17.38;6.72;;;7.30;99.90;;;;;;5087859;28;20081;-43
2021/10/23 08:01:21;;;;;;;15.25;6.95;;;7.40;99.90;;;;;;5088262;28;20111;-44
2021/10/23 08:03:49;;;;;;;23.63;7.25;;;7.40;99.90;;;;;;5087448;28;20052;-43
2021/10/23 08:06:14;;;;;;;14.02;7.90;;;7.50;99.90;;;;;;5088567;28;20361;-44
2021/10/23 08:08:39;;;;;;;15.80;8.23;;;7.60;99.90;;;;;;5087808;28;20120;-43
2021/10/23 08:11:06;;;;;;;18.50;8.52;;;7.60;99.90;;;;;;5087491;28;20024;-44
2021/10/23 08:13:32;;;;;;;15.85;8.63;;;7.70;99.90;;;;;;5088363;28;20375;-43
2021/10/23 08:16:02;;;;;;;10.00;8.35;;;7.80;99.90;;;;;;5087266;28;20091;-43
2021/10/23 08:18:28;;;;;;;16.80;9.70;;;7.80;99.90;;;;;;5087660;28;20561;-45
2021/10/23 08:20:54;;;;;;;10.65;9.30;;;7.90;99.90;;;;;;5087678;28;20103;-44
2021/10/23 08:23:21;;;;;;;14.23;10.70;;;7.90;99.90;;;;;;5087610;28;20127;-43
2021/10/23 08:25:46;;;;;;;11.40;10.07;;;7.90;99.90;;;;;;5087379;28;20039;-44
2021/10/23 08:28:12;;;;;;;10.75;9.65;;;8.00;99.90;;;;;;5088395;28;20020;-43
2021/10/23 08:30:40;;;;;;;10.93;9.80;;;8.00;99.90;;;;;;5087071;28;20020;-43
2021/10/23 08:33:06;;;;;;;12.05;9.90;;;8.10;99.90;;;;;;5088195;28;20035;-43
2021/10/23 08:35:31;;;;;;;11.88;9.85;;;8.10;99.90;;;;;;5087407;28;20024;-44
2021/10/23 08:37:57;;;;;;;12.60;10.15;;;8.10;99.90;;;;;;5086899;28;20089;-43
2021/10/23 08:40:23;;;;;;;10.98;9.88;;;8.20;99.90;;;;;;5087216;28;20016;-45
2021/10/23 08:42:49;;;;;;;10.85;9.63;;;8.20;99.90;;;;;;5087597;28;20077;-44
2021/10/23 08:45:16;;;;;;;11.10;10.00;;;8.20;99.90;;;;;;5087116;28;20024;-44
2021/10/23 08:47:44;;;;;;;11.60;9.68;;;8.30;99.90;;;;;;5086787;28;20494;-44
2021/10/23 08:50:13;;;;;;;10.82;9.68;;;8.30;99.90;;;;;;5087616;28;20027;-43
2021/10/23 08:52:39;;;;;;;10.35;9.35;;;8.40;99.90;;;;;;5086636;28;20491;-43
2021/10/23 08:55:06;;;;;;;12.00;9.90;;;8.40;99.90;;;;;;5087256;28;20055;-44
2021/10/23 08:57:32;;;;;;;12.23;9.93;;;8.40;99.90;;;;;;5086868;28;20050;-44
2021/10/23 09:00:01;;;;;;;7.43;6.72;;;8.50;99.90;;;;;;5086711;28;20016;-44
2021/10/23 09:02:27;;;;;;;11.07;9.90;;;8.60;99.90;;;;;;5086147;28;20024;-44
2021/10/23 09:04:56;;;;;;;11.02;9.93;;;8.60;99.90;;;;;;5087408;28;20057;-44
2021/10/23 09:07:23;;;;;;;11.60;10.02;;;8.70;99.90;;;;;;5090087;28;20726;-44
2021/10/23 09:09:54;;;;;;;11.77;10.57;;;8.70;99.90;;;;;;5091443;28;20500;-43
2021/10/23 09:12:24;;;;;;;12.70;11.40;;;8.70;99.90;;;;;;5091019;28;20027;-44
2021/10/23 09:15:06;;;;;;;12.23;10.93;;;8.70;99.90;;;;;;5091431;28;20039;-44
2021/10/23 09:17:35;;;;;;;12.43;11.13;;;8.80;99.90;;;;;;5091004;28;20027;-43
2021/10/23 09:20:07;;;;;;;12.48;10.50;;;8.80;99.90;;;;;;5090429;28;20031;-44
2021/10/23 09:22:36;;;;;;;13.73;10.88;;;8.80;99.90;;;;;;5090994;28;20021;-44
2021/10/23 09:25:35;;;;;;;12.52;10.27;;;8.80;99.90;;;;;;5091290;28;20024;-43
2021/10/23 09:28:14;;;;;;;17.13;10.52;;;8.90;99.90;;;;;;5074741;28;20036;-43
2021/10/23 09:30:48;;;;;;;13.13;11.80;;;8.90;99.90;;;;;;5091053;28;20123;-43
2021/10/23 09:33:21;;;;;;;13.27;11.32;;;9.00;99.90;;;;;;5091321;28;20070;-44
2021/10/23 09:35:47;;;;;;;;;;;9.00;99.90;;;;;;5091552;28;20032;-43
2021/10/23 09:38:17;;;;;;;11.25;10.13;;;9.10;99.90;;;;;;5090708;28;19919;-43
2021/10/23 09:40:52;;;;;;;13.85;11.73;;;9.10;99.90;;;;;;5090008;28;20103;-43
2021/10/23 09:43:22;;;;;;;14.07;11.32;;;9.20;99.90;;;;;;5091318;28;20056;-43
2021/10/23 09:48:36;;;;;;;13.50;11.52;;;9.40;99.90;;;;;;5085391;28;20059;-44
2021/10/23 09:51:14;;;;;;;13.75;12.35;;;9.40;99.90;;;;;;5070436;28;20028;-42
2021/10/23 09:53:41;;;;;;;12.93;11.50;;;9.50;99.90;;;;;;5086443;28;20543;-43
2021/10/23 09:56:09;;;;;;;13.65;12.25;;;9.50;99.90;;;;;;5075860;28;20016;-44
2021/10/23 09:58:35;;;;;;;13.23;11.73;;;9.60;99.90;;;;;;5090287;28;20035;-44
2021/10/23 10:01:01;;;;;;;12.95;11.23;;;9.70;99.90;;;;;;5090667;28;20024;-44
2021/10/23 10:03:29;;;;;;;12.50;11.23;;;9.80;99.90;;;;;;5089650;28;20080;-43
2021/10/23 10:05:56;;;;;;;12.90;11.23;;;9.90;99.90;;;;;;5090235;28;20039;-44
2021/10/23 10:08:22;;;;;;;12.80;11.48;;;9.90;99.90;;;;;;5090207;28;20047;-43
2021/10/23 10:10:49;;;;;;;12.90;11.50;;;10.00;99.90;;;;;;5089806;28;20016;-43
2021/10/23 10:13:22;;;;;;;12.18;10.90;;;10.00;99.90;;;;;;5090282;28;20103;-43
2021/10/23 10:15:48;;;;;;;;;;;10.10;99.90;;;;;;5090223;28;20085;-43
2021/10/23 10:18:19;;;;;;;12.48;9.73;;;10.10;99.90;;;;;;5089015;28;20537;-44
2021/10/23 10:20:46;;;;;;;11.68;10.50;;;10.20;99.90;;;;;;5089665;28;20490;-43
2021/10/23 10:23:43;;;;;;;12.90;10.90;;;10.20;99.90;;;;;;5089623;28;20036;-44
2021/10/23 10:26:14;;;;;;;13.15;11.27;;;10.30;99.90;;;;;;5062563;28;20889;-43
2021/10/23 10:29:05;;;;;;;13.50;11.30;;;10.40;99.90;;;;;;5089195;28;20110;-44
2021/10/23 10:31:46;;;;;;;12.45;11.15;;;10.60;99.90;;;;;;5089449;28;20036;-44
2021/10/23 10:34:34;;;;;;;12.25;10.63;;;10.80;99.90;;;;;;5089960;28;20020;-43
2021/10/23 10:42:51;;;;;;;16.35;11.43;;;10.80;99.90;;;;;;5089231;28;20093;-43
2021/10/23 10:45:43;;;;;;;12.75;10.98;;;10.70;99.90;;;;;;5089086;28;20106;-43
2021/10/23 10:48:17;;;;;;;13.45;11.50;;;10.70;99.90;;;;;;5069833;28;20518;-43
2021/10/23 10:50:45;;;;;;;14.70;11.40;;;10.60;99.90;;;;;;5086018;28;20981;-43
2021/10/23 10:53:13;;;;;;;13.57;11.52;;;10.60;99.90;;;;;;5089801;28;20050;-43
2021/10/23 10:55:41;;;;;;;13.23;11.15;;;10.60;99.90;;;;;;5088956;28;20044;-43
2021/10/23 10:58:11;;;;;;;15.15;11.45;;;10.70;99.90;;;;;;5089467;28;20039;-44
2021/10/23 11:00:45;;;;;;;12.43;11.10;;;10.80;99.90;;;;;;5089077;28;20349;-43
2021/10/23 11:03:36;;;;;;;14.55;11.80;;;10.90;99.90;;;;;;5089437;28;20119;-43
2021/10/23 11:06:33;;;;;;;14.75;11.57;;;11.00;99.90;;;;;;5088292;28;20031;-44
2021/10/23 11:09:11;;;;;;;13.75;11.35;;;11.20;99.90;;;;;;5068829;28;20120;-43
2021/10/23 11:11:45;;;;;;;14.45;11.38;;;11.30;99.90;;;;;;5088326;28;20032;-44
2021/10/23 11:14:39;;;;;;;16.70;11.85;;;11.40;99.90;;;;;;5089257;28;20032;-44
2021/10/23 11:17:10;;;;;;;16.85;11.80;;;11.50;99.90;;;;;;5085732;28;20016;-46
2021/10/23 11:19:42;;;;;;;17.55;13.05;;;11.60;99.90;;;;;;5088073;28;20514;-44
2021/10/23 11:22:07;;;;;;;16.05;11.88;;;11.70;99.90;;;;;;5088304;28;20099;-42
2021/10/23 11:24:50;;;;;;;16.30;12.20;;;11.80;99.90;;;;;;5088930;28;20153;-43
2021/10/23 11:27:38;;;;;;;16.88;12.13;;;11.90;99.90;;;;;;5087461;28;20066;-43
2021/10/23 11:30:06;;;;;;;16.17;12.10;;;12.10;99.90;;;;;;5088999;28;20035;-44
2021/10/23 11:32:37;;;;;;;16.10;11.75;;;12.20;99.90;;;;;;5088517;28;20486;-44
2021/10/23 11:35:04;;;;;;;11.82;10.05;;;12.20;99.90;;;;;;5087882;28;20183;-43
2021/10/23 11:37:30;;;;;;;14.05;11.32;;;12.30;99.90;;;;;;5088206;28;20024;-43
2021/10/23 11:40:00;;;;;;;14.63;10.77;;;12.30;99.90;;;;;;5088249;28;20036;-43
2021/10/23 11:42:31;;;;;;;15.93;11.90;;;12.40;99.90;;;;;;5088268;28;20383;-43
2021/10/23 11:45:01;;;;;;;15.50;11.57;;;12.40;99.90;;;;;;5088720;28;20023;-44
2021/10/23 11:47:31;;;;;;;12.85;11.15;;;12.50;99.90;;;;;;5087263;28;20020;-43
2021/10/23 11:50:02;;;;;;;19.05;11.50;;;12.50;99.90;;;;;;5068029;28;20013;-43
2021/10/23 11:52:31;;;;;;;17.48;13.15;;;12.60;99.90;;;;;;5083474;28;20059;-44
2021/10/23 11:54:57;;;;;;;15.43;11.93;;;12.70;99.90;;;;;;5087702;28;20101;-44
2021/10/23 11:57:45;;;;;;;13.35;10.85;;;12.70;99.90;;;;;;5088056;28;20694;-44
2021/10/23 12:00:16;;;;;;;13.90;11.40;;;12.70;99.90;;;;;;5088524;28;20071;-43
2021/10/23 12:02:50;;;;;;;15.07;10.80;;;12.80;99.90;;;;;;5086843;28;20453;-44
2021/10/23 12:05:21;;;;;;;16.92;12.38;;;12.80;99.90;;;;;;5088316;28;20027;-43
2021/10/23 12:08:06;;;;;;;14.30;11.25;;;12.80;99.90;;;;;;5087881;28;20039;-44
2021/10/23 12:10:33;;;;;;;14.80;10.45;;;12.90;99.90;;;;;;5088009;28;20024;-43
2021/10/23 12:13:14;;;;;;;13.95;11.63;;;12.80;99.90;;;;;;5087506;28;20119;-43
2021/10/23 12:15:40;;;;;;;16.35;11.82;;;12.90;99.90;;;;;;5087163;28;20020;-44
2021/10/23 12:18:08;;;;;;;17.90;12.25;;;12.90;99.90;;;;;;5088041;28;20028;-44
2021/10/23 12:20:43;;;;;;;14.80;10.98;;;12.90;99.90;;;;;;5087877;28;20024;-44
2021/10/23 12:23:08;;;;;;;15.95;11.70;;;13.00;99.90;;;;;;5087370;28;20464;-43
2021/10/23 12:25:39;;;;;;;16.48;11.82;;;13.00;99.90;;;;;;5088004;28;20026;-43
2021/10/23 12:28:05;;;;;;;14.20;12.05;;;13.00;99.90;;;;;;5088187;28;20031;-44
2021/10/23 12:30:30;;;;;;;11.13;9.35;;;13.10;99.90;;;;;;5087315;28;20024;-43
2021/10/23 12:33:00;;;;;;;17.50;13.20;;;13.10;99.90;;;;;;5087618;28;20172;-43
2021/10/23 12:35:27;;;;;;;19.80;13.20;;;13.10;99.90;;;;;;5087808;28;20039;-43
2021/10/23 12:37:57;;;;;;;16.70;12.45;;;13.10;99.90;;;;;;5086569;28;20032;-43
2021/10/23 12:40:30;;;;;;;16.88;12.98;;;13.20;99.90;;;;;;5087588;28;20020;-43
2021/10/23 12:43:03;;;;;;;17.80;12.65;;;13.10;99.90;;;;;;5087315;28;20479;-44
2021/10/23 12:45:33;;;;;;;18.92;12.45;;;13.20;99.90;;;;;;5076098;28;20042;-43
2021/10/23 12:48:02;;;;;;;16.48;12.60;;;13.20;99.90;;;;;;5087408;28;20028;-44
2021/10/23 12:50:28;;;;;;;17.27;11.38;;;13.20;99.90;;;;;;5087356;28;20020;-43
2021/10/23 12:52:54;;;;;;;18.20;13.23;;;13.20;99.90;;;;;;5087544;28;20031;-44
2021/10/23 12:55:22;;;;;;;17.67;13.15;;;13.20;99.90;;;;;;5087424;28;20046;-42
2021/10/23 12:57:47;;;;;;;17.45;13.68;;;13.30;99.90;;;;;;5086537;28;20656;-43